地図

経路データ

SID SEASON NUMBER BASIN SUBBASIN NAME ISO_TIME NATURE LAT LON WMO_WIND WMO_PRES WMO_AGENCY TRACK_TYPE DIST2LAND LANDFALL IFLAG USA_AGENCY USA_ATCF_ID USA_LAT USA_LON USA_RECORD USA_STATUS USA_WIND USA_PRES USA_SSHS USA_R34_NE USA_R34_SE USA_R34_SW USA_R34_NW USA_R50_NE USA_R50_SE USA_R50_SW USA_R50_NW USA_R64_NE USA_R64_SE USA_R64_SW USA_R64_NW USA_POCI USA_ROCI USA_RMW USA_EYE TOKYO_LAT TOKYO_LON TOKYO_GRADE TOKYO_WIND TOKYO_PRES TOKYO_R50_DIR TOKYO_R50_LONG TOKYO_R50_SHORT TOKYO_R30_DIR TOKYO_R30_LONG TOKYO_R30_SHORT TOKYO_LAND CMA_LAT CMA_LON CMA_CAT CMA_WIND CMA_PRES HKO_LAT HKO_LON HKO_CAT HKO_WIND HKO_PRES NEWDELHI_LAT NEWDELHI_LON NEWDELHI_GRADE NEWDELHI_WIND NEWDELHI_PRES NEWDELHI_CI NEWDELHI_DP NEWDELHI_POCI REUNION_LAT REUNION_LON REUNION_TYPE REUNION_WIND REUNION_PRES REUNION_TNUM REUNION_CI REUNION_RMW REUNION_R34_NE REUNION_R34_SE REUNION_R34_SW REUNION_R34_NW REUNION_R50_NE REUNION_R50_SE REUNION_R50_SW REUNION_R50_NW REUNION_R64_NE REUNION_R64_SE REUNION_R64_SW REUNION_R64_NW BOM_LAT BOM_LON BOM_TYPE BOM_WIND BOM_PRES BOM_TNUM BOM_CI BOM_RMW BOM_R34_NE BOM_R34_SE BOM_R34_SW BOM_R34_NW BOM_R50_NE BOM_R50_SE BOM_R50_SW BOM_R50_NW BOM_R64_NE BOM_R64_SE BOM_R64_SW BOM_R64_NW BOM_ROCI BOM_POCI BOM_EYE BOM_POS_METHOD BOM_PRES_METHOD NADI_LAT NADI_LON NADI_CAT NADI_WIND NADI_PRES WELLINGTON_LAT WELLINGTON_LON WELLINGTON_WIND WELLINGTON_PRES DS824_LAT DS824_LON DS824_STAGE DS824_WIND DS824_PRES TD9636_LAT TD9636_LON TD9636_STAGE TD9636_WIND TD9636_PRES TD9635_LAT TD9635_LON TD9635_WIND TD9635_PRES TD9635_ROCI NEUMANN_LAT NEUMANN_LON NEUMANN_CLASS NEUMANN_WIND NEUMANN_PRES MLC_LAT MLC_LON MLC_CLASS MLC_WIND MLC_PRES USA_GUST BOM_GUST BOM_GUST_PER REUNION_GUST REUNION_GUST_PER USA_SEAHGT USA_SEARAD_NE USA_SEARAD_SE USA_SEARAD_SW USA_SEARAD_NW STORM_SPEED STORM_DIR
1898240N24090 1898 33 NI BB NOT_NAMED 1898-08-28 00:00:00 TS 24.1000 90.2000 main 0 0 _________O____ -1 24.1000 90.2000 TC 30 4 259
1898240N24090 1898 33 NI BB NOT_NAMED 1898-08-28 03:00:00 TS 24.0667 90.0083 main 0 0 _________PO___ -1 24.0500 89.9125 TC 30 24.1000 90.2000 1 5 260
1898240N24090 1898 33 NI BB NOT_NAMED 1898-08-28 06:00:00 TS 24.0179 89.6993 main 0 0 _________OP___ -1 24.0000 89.6000 TC 30 24.0449 89.8482 1 6 261
1898240N24090 1898 33 NI BB NOT_NAMED 1898-08-28 09:00:00 TS 23.9678 89.3602 main 0 0 _________PP___ -1 23.9500 89.2500 TC 30 23.9914 89.5072 1 6 261
1898240N24090 1898 33 NI BB NOT_NAMED 1898-08-28 12:00:00 TS 23.9211 89.0438 main 0 0 _________OP___ -1 23.9000 88.9000 TC 30 23.9422 89.1876 1 6 260
1898240N24090 1898 33 NI BB NOT_NAMED 1898-08-28 15:00:00 TS 23.8712 88.7462 main 0 0 _________PO___ -1 23.8424 88.5925 TC 30 23.9000 88.9000 1 5 260
1898240N24090 1898 33 NI BB NOT_NAMED 1898-08-28 18:00:00 TS 23.8333 88.4729 main 0 0 _________OP___ -1 23.8000 88.3000 TC 30 23.8666 88.6458 1 5 264
1898240N24090 1898 33 NI BB NOT_NAMED 1898-08-28 21:00:00 TS 23.8201 88.2177 main 0 0 _________PP___ -1 23.7996 88.0451 TC 30 23.8406 88.3902 1 5 267
1898240N24090 1898 33 NI BB NOT_NAMED 1898-08-29 00:00:00 TS 23.8097 87.8947 main 0 0 _________OP___ -1 23.8000 87.7000 TC 30 23.8194 88.0895 1 7 266
1898240N24090 1898 33 NI BB NOT_NAMED 1898-08-29 03:00:00 TS 23.7751 87.4261 main 0 0 _________PO___ -1 23.7501 87.1523 TC 30 23.8000 87.7000 1 10 266
1898240N24090 1898 33 NI BB NOT_NAMED 1898-08-29 06:00:00 TS 23.7343 86.8158 main 0 0 _________OP___ -1 23.7000 86.5000 TC 30 23.7685 87.1316 1 12 267
1898240N24090 1898 33 NI BB NOT_NAMED 1898-08-29 09:00:00 TS 23.7150 86.1498 main 0 0 _________PP___ -1 23.6927 85.8201 TC 30 23.7374 86.4795 1 12 269
1898240N24090 1898 33 NI BB NOT_NAMED 1898-08-29 12:00:00 TS 23.7061 85.5064 main 0 0 _________OP___ -1 23.7000 85.2000 TC 30 23.7122 85.8128 1 11 269
1898240N24090 1898 33 NI BB NOT_NAMED 1898-08-29 15:00:00 TS 23.6960 84.9812 main 0 0 _________PO___ -1 23.6920 84.7624 TC 30 23.7000 85.2000 1 9 270
1898240N24090 1898 33 NI BB NOT_NAMED 1898-08-29 18:00:00 TS 23.7067 84.5638 main 0 0 _________OP___ -1 23.7000 84.4000 TC 30 23.7135 84.7276 1 8 274
1898240N24090 1898 33 NI BB NOT_NAMED 1898-08-29 21:00:00 TS 23.7455 84.1553 main 0 0 _________PP___ -1 23.7500 83.9926 TC 30 23.7411 84.3180 1 7 276
1898240N24090 1898 33 NI BB NOT_NAMED 1898-08-30 00:00:00 TS 23.7866 83.7747 main 0 0 _________OP___ -1 23.8000 83.6000 TC 30 23.7732 83.9494 1 7 275
1898240N24090 1898 33 NI BB NOT_NAMED 1898-08-30 03:00:00 TS 23.8037 83.4212 main 0 0 _________PO___ -1 23.8074 83.2424 TC 30 23.8000 83.6000 1 7 271
1898240N24090 1898 33 NI BB NOT_NAMED 1898-08-30 06:00:00 TS 23.8014 83.0637 main 0 0 _________OP___ -1 23.8000 82.9000 TC 30 23.8028 83.2273 1 7 270
1898240N24090 1898 33 NI BB NOT_NAMED 1898-08-30 09:00:00 TS 23.7998 82.7061 main 0 0 _________PP___ -1 23.8000 82.5425 TC 30 23.7997 82.8698 1 6 270
1898240N24090 1898 33 NI BB NOT_NAMED 1898-08-30 12:00:00 TS 23.7983 82.3637 main 0 0 _________OP___ -1 23.8000 82.2000 TC 30 23.7967 82.5273 1 6 270
1898240N24090 1898 33 NI BB NOT_NAMED 1898-08-30 15:00:00 TS 23.7962 82.0462 main 0 0 _________PO___ -1 23.7924 81.8924 TC 30 23.8000 82.2000 1 5 271
1898240N24090 1898 33 NI BB NOT_NAMED 1898-08-30 18:00:00 TS 23.8082 81.7640 main 0 0 _________OP___ -1 23.8000 81.6000 TC 30 23.8143 81.8870 1 5 275
1898240N24090 1898 33 NI BB NOT_NAMED 1898-08-30 21:00:00 TS 23.8388 81.4722 main 0 0 _________PP___ -1 23.8401 81.3026 TC 30 23.8379 81.5852 1 5 278
1898240N24090 1898 33 NI BB NOT_NAMED 1898-08-31 00:00:00 TS 23.8784 81.1939 main 0 0 _________OP___ -1 23.9000 81.0000 TC 30 23.8676 81.2908 1 4 278
1898240N24090 1898 33 NI BB NOT_NAMED 1898-08-31 03:00:00 NR 23.9000 81.0000 main 0 __________O___ -1 TC 23.9000 81.0000 1 4 277

IBTrACS Databaseについて

本データベースは、米国NOAAが公開する1842年以降の世界の熱帯低気圧のベストトラックデータアーカイブInternational Best Track Archive for Climate Stewardship (IBTrACS)を、ウェブで閲覧しやすい形式に変換したものです。

最終更新日:2021-12-08